Reardan, WA (99029)

10:14 PM PDT on September 20, 2014 (GMT -0700)
Four Mound Prairie | Change Station
CLOSE
Current Station
Personal Weather Station
Location: Reardan, WA
Elevation: 2452 ft
Nearby Weather Stations

Elev 2452 ft 47.78 °N, 117.73 °W | Updated 4 seconds ago

Clear
Clear
64.8 °F
Feels Like 64.8 °F
N
0.0
Wind Variable Wind from North
Gusts 2.2 mph

Today
High -- | Low -- °F
--% Chance of Precip.
Yesterday
High -- | Low -- °F
Precip. -- in
6:35 AM 6:52 PM
Waning Crescent, 8% visible
Pressure 30.04 in
Visibility 10.0 miles
Clouds Clear
Dew Point 45 °F
Humidity 49%
Rainfall 0.00 in
Snow Depth 0 in , 0 in , 0 in
UV 0 out of 12
Pollen 7.80 out of 12
PM2.5 Good
Flu Activity Not available.
METAR KSKA 210458Z AUTO 03006KT 10SM CLR 19/06 A3006 RMK AO2 SLP172 T01860060

More Conditions Fewer Conditions

Pressure 30.04 in
Visibility 10.0 miles
Clouds Clear
Dew Point 45 °F
Humidity 49%
Rainfall 0.00 in
Snow Depth 0 in , 0 in , 0 in
UV 0 out of 12
Pollen 7.80 out of 12
PM2.5 Good
Flu Activity Not available.
METAR KSKA 210458Z AUTO 03006KT 10SM CLR 19/06 A3006 RMK AO2 SLP172 T01860060

More Conditions Fewer Conditions

10-Day Weather Forecast

Almanac

Astronomy

Sep. 20, 2014 Rise Set
Actual Time 6:35 AM PDT 6:52 PM PDT
Civil Twilight 6:04 AM PDT 7:23 PM PDT
Nautical Twilight 5:27 AM PDT 7:59 PM PDT
Astronomical Twilight 4:50 AM PDT 8:37 PM PDT
Moon 3:07 AM PDT (9/20) 5:08 PM PDT (9/20)
Length of Visible Light 13h 19m
Length of Day
12h 17m
Tomorrow will be 3m 25s shorter.
Waning Crescent, 8% of the Moon is Illuminated
Sep 21
Waning Crescent
Sep 24
New
Oct 1
First Quarter
Oct 8
Full
Oct 15
Last Quarter

Yesterday's Extremes

State Highs State Lows

Community

WunderPhotos

Upload Photos

1,755,091 photos uploaded!

Nearby

Air Quality

  Air Quality AQ Index Pollutant
Yesterday Good
OZONE
Yesterday Good
PM10
Current Good
PM2.5
Saturday Good
PM10
Saturday Good
OZONE
Sunday Good
PM10
Sunday Good
OZONE
Monday Good
PM10
Monday Good
OZONE

Snow Depth

Station Depth Elevation
Swift Creek 0 in 3770 ft
Sourdough Gulch 0 in 4000 ft
Pigtail Peak 0 in 5900 ft
Trough 0 in 5300 ft
Touchet 0 in 5530 ft

Earthquake Activity

City Distance Mag. Time & Date
No recent earthquake activity has been reported nearby.
Minimum magnitude displayed is 2.5.

Coastal Water Temperatures

Place Temperature
No Stations Reporting

Nearby Weather Stations